Time;durP1;ratioP1;P1;durP2;ratioP2;P2;SDS_P1;SDS_P2;PMS_P1;PMS_P2;Temp;Humidity;BMP_temperature;BMP_pressure;BME280_temperature;BME280_humidity;BME280_pressure;Samples;Min_cycle;Max_cycle;Signal;HPM_P1;HPM_P2
2023/07/14 00:00:43;;;;;;;8.52;4.07;;;18.30;99.90;;;;;;5065316;28;20197;-84
2023/07/14 00:03:15;;;;;;;9.82;4.35;;;18.30;99.90;;;;;;5074677;28;20250;-84
2023/07/14 00:05:43;;;;;;;7.00;4.00;;;18.30;99.90;;;;;;5074504;28;20201;-82
2023/07/14 00:08:18;;;;;;;10.05;3.55;;;18.20;99.90;;;;;;5074546;28;20245;-86
2023/07/14 00:10:45;;;;;;;8.40;3.70;;;18.20;99.90;;;;;;5058914;28;20292;-86
2023/07/14 00:13:16;;;;;;;12.68;4.13;;;18.20;99.90;;;;;;5054361;28;20206;-85
2023/07/14 00:15:44;;;;;;;7.68;3.42;;;18.20;99.90;;;;;;5053921;28;20273;-81
2023/07/14 00:18:17;;;;;;;6.85;3.90;;;18.20;99.90;;;;;;5054568;28;20198;-83
2023/07/14 00:20:45;;;;;;;7.60;4.90;;;18.10;99.90;;;;;;5054112;28;20487;-83
2023/07/14 00:23:13;;;;;;;11.88;5.60;;;18.10;99.90;;;;;;5053841;28;20216;-83
2023/07/14 00:25:41;;;;;;;11.98;7.47;;;18.00;99.90;;;;;;5059320;28;20605;-83
2023/07/14 00:28:16;;;;;;;12.63;8.57;;;18.10;99.90;;;;;;5074213;28;20618;-81
2023/07/14 00:30:45;;;;;;;13.15;6.72;;;18.10;99.90;;;;;;5073324;28;20657;-83
2023/07/14 00:33:14;;;;;;;11.70;4.80;;;18.10;99.90;;;;;;5074238;28;20205;-82
2023/07/14 00:35:42;;;;;;;9.60;4.93;;;18.10;99.90;;;;;;5067834;28;20201;-83
2023/07/14 00:38:10;;;;;;;10.32;5.70;;;18.00;99.90;;;;;;5054030;28;20186;-83
2023/07/14 00:40:41;;;;;;;11.90;6.40;;;18.00;99.90;;;;;;5053626;28;20524;-84
2023/07/14 00:43:15;;;;;;;11.00;6.75;;;18.00;99.90;;;;;;5053356;28;20598;-83
2023/07/14 00:45:44;;;;;;;9.43;5.78;;;18.00;99.90;;;;;;5053994;28;20229;-82
2023/07/14 00:48:15;;;;;;;7.70;4.78;;;18.00;99.90;;;;;;5053532;28;20233;-82
2023/07/14 00:50:47;;;;;;;11.25;5.85;;;18.00;99.90;;;;;;5053794;28;20198;-81
2023/07/14 00:53:28;;;;;;;15.90;7.93;;;18.00;99.90;;;;;;5053883;28;20224;-83
2023/07/14 00:55:58;;;;;;;16.25;9.77;;;18.00;99.90;;;;;;5053236;28;20224;-82
2023/07/14 00:58:27;;;;;;;12.20;8.60;;;18.00;99.90;;;;;;5052959;28;20198;-80
2023/07/14 01:01:04;;;;;;;11.50;8.20;;;17.90;99.90;;;;;;5065638;28;20271;-82
2023/07/14 01:03:32;;;;;;;15.30;7.30;;;17.90;99.90;;;;;;5072733;28;20185;-81
2023/07/14 01:06:02;;;;;;;12.90;5.90;;;18.00;99.90;;;;;;5072778;28;20193;-81
2023/07/14 01:08:31;;;;;;;13.70;6.18;;;18.00;99.90;;;;;;5072335;28;20618;-81
2023/07/14 01:11:00;;;;;;;13.95;7.05;;;17.90;99.90;;;;;;5057157;28;20222;-81
2023/07/14 01:13:29;;;;;;;11.15;6.00;;;18.00;99.90;;;;;;5053127;28;20924;-83
2023/07/14 01:15:56;;;;;;;12.82;6.88;;;17.90;99.90;;;;;;5060150;28;20209;-82
2023/07/14 01:18:25;;;;;;;13.05;8.10;;;17.90;99.90;;;;;;5072367;28;20777;-84
2023/07/14 01:20:52;;;;;;;10.18;6.15;;;17.90;99.90;;;;;;5073268;28;20218;-80
2023/07/14 01:23:39;;;;;;;8.95;5.13;;;17.90;99.90;;;;;;5073001;28;20201;-83
2023/07/14 01:26:19;;;;;;;15.90;4.85;;;17.90;99.90;;;;;;5053120;28;20673;-82
2023/07/14 01:28:48;;;;;;;8.52;4.60;;;17.90;99.90;;;;;;5052484;28;20216;-83
2023/07/14 01:31:20;;;;;;;8.93;4.00;;;17.90;99.90;;;;;;5066245;28;20297;-79
2023/07/14 01:33:48;;;;;;;6.97;3.85;;;17.90;99.90;;;;;;5071878;28;20267;-79
2023/07/14 01:36:15;;;;;;;10.85;4.82;;;17.90;99.90;;;;;;5071865;28;20628;-80
2023/07/14 01:38:43;;;;;;;9.73;4.30;;;17.80;99.90;;;;;;5062832;28;20198;-78
2023/07/14 01:41:11;;;;;;;7.75;3.45;;;17.80;99.90;;;;;;5052276;28;20202;-81
2023/07/14 01:43:39;;;;;;;9.63;3.70;;;17.80;99.90;;;;;;5052298;28;20198;-81
2023/07/14 01:46:14;;;;;;;10.32;3.65;;;17.80;99.90;;;;;;5035300;28;20206;-81
2023/07/14 01:48:51;;;;;;;10.55;3.28;;;17.80;99.90;;;;;;5032110;28;20221;-81
2023/07/14 01:51:18;;;;;;;9.25;3.70;;;17.70;99.90;;;;;;5032853;28;20221;-79
2023/07/14 01:53:55;;;;;;;10.35;4.03;;;17.70;99.90;;;;;;5032022;28;20201;-82
2023/07/14 01:56:25;;;;;;;8.25;3.42;;;17.70;99.90;;;;;;5032713;28;20511;-82
2023/07/14 01:58:59;;;;;;;11.13;3.70;;;17.70;99.90;;;;;;5032490;28;20226;-81
2023/07/14 02:01:29;;;;;;;7.43;3.28;;;17.60;99.90;;;;;;5031894;28;20214;-81
2023/07/14 02:03:58;;;;;;;5.55;3.20;;;17.70;99.90;;;;;;5031957;28;20234;-79
2023/07/14 02:06:25;;;;;;;8.40;3.83;;;17.60;99.90;;;;;;5033002;28;20622;-81
2023/07/14 02:08:53;;;;;;;8.55;3.63;;;17.60;99.90;;;;;;5032458;28;20230;-81
2023/07/14 02:11:23;;;;;;;8.73;3.42;;;17.60;99.90;;;;;;5032561;28;20191;-81
2023/07/14 02:13:52;;;;;;;7.13;3.35;;;17.60;99.90;;;;;;5032094;28;20480;-81
2023/07/14 02:16:19;;;;;;;8.15;3.67;;;17.60;99.90;;;;;;5032520;28;20199;-81
2023/07/14 02:18:49;;;;;;;11.60;3.58;;;17.60;99.90;;;;;;5038398;28;20198;-82
2023/07/14 02:21:24;;;;;;;7.95;3.13;;;17.60;99.90;;;;;;5052044;28;20198;-82
2023/07/14 02:23:52;;;;;;;9.25;3.40;;;17.60;99.90;;;;;;5051175;28;20189;-82
2023/07/14 02:26:27;;;;;;;9.23;3.30;;;17.60;99.90;;;;;;5052374;28;20194;-81
2023/07/14 02:28:56;;;;;;;7.25;2.75;;;17.60;99.90;;;;;;5051594;28;20234;-81
2023/07/14 02:31:30;;;;;;;9.25;3.85;;;17.50;99.90;;;;;;5051102;28;20613;-82
2023/07/14 02:34:00;;;;;;;5.70;3.42;;;17.50;99.90;;;;;;5052137;28;20185;-81
2023/07/14 02:36:39;;;;;;;9.70;3.65;;;17.50;99.90;;;;;;5050937;28;20230;-81
2023/07/14 02:39:06;;;;;;;7.78;3.35;;;17.50;99.90;;;;;;5035618;28;20199;-82
2023/07/14 02:41:38;;;;;;;8.80;3.60;;;17.50;99.90;;;;;;5032397;28;20203;-81
2023/07/14 02:44:09;;;;;;;10.13;3.85;;;17.40;99.90;;;;;;5035815;28;20236;-82
2023/07/14 02:46:43;;;;;;;9.60;3.90;;;17.40;99.90;;;;;;5055765;28;20197;-81
2023/07/14 02:49:12;;;;;;;10.95;4.00;;;17.40;99.90;;;;;;5054747;28;20303;-82
2023/07/14 02:51:39;;;;;;;8.15;3.88;;;17.40;99.90;;;;;;5055965;28;20590;-82
2023/07/14 02:54:07;;;;;;;9.00;3.63;;;17.40;99.90;;;;;;5055417;28;20198;-81
2023/07/14 02:56:35;;;;;;;7.75;3.70;;;17.40;99.90;;;;;;5055508;28;20197;-82
2023/07/14 02:59:02;;;;;;;5.65;3.63;;;17.30;99.90;;;;;;5055172;28;20746;-82
2023/07/14 03:01:32;;;;;;;8.27;3.63;;;17.30;99.90;;;;;;5055136;28;20212;-82
2023/07/14 03:04:00;;;;;;;8.00;4.10;;;17.30;99.90;;;;;;5054720;28;20252;-80
2023/07/14 03:06:29;;;;;;;5.45;3.70;;;17.20;99.90;;;;;;5055009;28;20198;-82
2023/07/14 03:08:56;;;;;;;6.55;3.70;;;17.20;99.90;;;;;;5055376;28;20664;-82
2023/07/14 03:11:23;;;;;;;5.68;3.33;;;17.20;99.90;;;;;;5055520;28;20209;-82
2023/07/14 03:13:51;;;;;;;7.43;3.60;;;17.20;99.90;;;;;;5055308;28;20254;-81
2023/07/14 03:16:18;;;;;;;8.98;3.63;;;17.20;99.90;;;;;;5055331;28;20202;-84
2023/07/14 03:18:45;;;;;;;6.93;3.47;;;17.10;99.90;;;;;;5055060;28;20204;-82
2023/07/14 03:21:13;;;;;;;6.95;3.58;;;17.10;99.90;;;;;;5055587;28;20599;-81
2023/07/14 03:23:42;;;;;;;6.20;3.10;;;17.10;99.90;;;;;;5055437;28;20244;-82
2023/07/14 03:26:10;;;;;;;8.13;3.35;;;17.10;99.90;;;;;;5056826;28;20205;-82
2023/07/14 03:28:38;;;;;;;6.10;3.83;;;17.10;99.90;;;;;;5074765;28;20732;-82
2023/07/14 03:31:05;;;;;;;9.77;3.97;;;17.00;99.90;;;;;;5064148;28;20276;-81
2023/07/14 03:33:34;;;;;;;4.72;3.08;;;17.00;99.90;;;;;;5054823;28;20205;-81
2023/07/14 03:36:02;;;;;;;6.43;3.13;;;17.00;99.90;;;;;;5054813;28;20209;-81
2023/07/14 03:38:29;;;;;;;6.85;3.20;;;16.90;99.90;;;;;;5054534;28;20194;-82
2023/07/14 03:40:58;;;;;;;7.50;3.47;;;16.90;99.90;;;;;;5037051;28;20280;-81
2023/07/14 03:43:25;;;;;;;6.95;3.22;;;16.90;99.90;;;;;;5055165;28;20202;-81
2023/07/14 03:45:52;;;;;;;6.63;3.50;;;16.80;99.90;;;;;;5053946;28;20802;-81
2023/07/14 03:48:19;;;;;;;6.53;3.45;;;16.80;99.90;;;;;;5054407;28;20283;-81
2023/07/14 03:50:47;;;;;;;10.13;3.80;;;16.80;99.90;;;;;;5061646;28;20216;-81
2023/07/14 03:53:14;;;;;;;5.07;3.28;;;16.80;99.90;;;;;;5074200;28;20205;-82
2023/07/14 03:55:41;;;;;;;6.38;3.30;;;16.80;99.90;;;;;;5073492;28;20210;-82
2023/07/14 03:58:10;;;;;;;5.55;3.22;;;16.80;99.90;;;;;;5074601;28;20550;-81
2023/07/14 04:00:37;;;;;;;5.65;3.20;;;16.80;99.90;;;;;;5061226;28;20248;-82
2023/07/14 04:03:04;;;;;;;5.22;2.80;;;16.80;99.90;;;;;;5054734;28;20194;-81
2023/07/14 04:05:31;;;;;;;8.45;3.45;;;16.70;99.90;;;;;;5054640;28;20202;-82
2023/07/14 04:07:59;;;;;;;5.97;2.72;;;16.80;99.90;;;;;;5053830;28;20529;-83
2023/07/14 04:10:26;;;;;;;4.68;3.00;;;16.80;99.90;;;;;;5054427;28;20281;-81
2023/07/14 04:12:53;;;;;;;7.93;2.72;;;16.80;99.90;;;;;;5054517;28;20602;-83
2023/07/14 04:15:22;;;;;;;6.47;3.20;;;16.80;99.90;;;;;;5054165;28;20202;-82
2023/07/14 04:17:49;;;;;;;3.55;3.00;;;16.80;99.90;;;;;;5054446;28;20290;-82
2023/07/14 04:20:16;;;;;;;5.18;2.97;;;16.80;99.90;;;;;;5054218;28;20198;-80
2023/07/14 04:22:43;;;;;;;8.57;3.45;;;16.80;99.90;;;;;;5053724;28;20664;-81
2023/07/14 04:25:12;;;;;;;4.45;3.10;;;16.80;99.90;;;;;;5054210;28;20202;-82
2023/07/14 04:27:39;;;;;;;4.90;2.80;;;16.80;99.90;;;;;;5053737;28;20460;-81
2023/07/14 04:30:08;;;;;;;6.05;3.30;;;16.80;99.90;;;;;;5053580;28;20226;-81
2023/07/14 04:32:37;;;;;;;7.57;3.63;;;16.80;99.90;;;;;;5053992;28;20534;-82
2023/07/14 04:35:06;;;;;;;6.70;3.15;;;16.80;99.90;;;;;;5053563;28;20516;-82
2023/07/14 04:37:33;;;;;;;8.07;3.55;;;16.80;99.90;;;;;;5053228;28;20252;-82
2023/07/14 04:40:00;;;;;;;4.80;2.90;;;16.80;99.90;;;;;;5053749;28;20255;-82
2023/07/14 04:42:27;;;;;;;5.65;3.00;;;16.80;99.90;;;;;;5053556;28;20618;-81
2023/07/14 04:44:54;;;;;;;5.60;3.05;;;16.80;99.90;;;;;;5053628;28;20238;-81
2023/07/14 04:47:21;;;;;;;7.13;3.45;;;16.90;99.90;;;;;;5053561;28;20612;-81
2023/07/14 04:49:50;;;;;;;7.68;3.60;;;16.90;99.90;;;;;;5053622;28;20221;-81
2023/07/14 04:52:18;;;;;;;7.43;3.60;;;16.90;99.90;;;;;;5053608;28;20186;-82
2023/07/14 04:54:45;;;;;;;5.43;2.90;;;16.90;99.90;;;;;;5053461;28;20502;-81
2023/07/14 04:57:12;;;;;;;5.43;3.60;;;16.90;99.90;;;;;;5052663;28;20206;-82
2023/07/14 04:59:40;;;;;;;9.13;3.33;;;16.90;99.90;;;;;;5053688;28;20529;-83
2023/07/14 05:02:08;;;;;;;7.72;3.63;;;16.90;99.90;;;;;;5052630;28;20586;-81
2023/07/14 05:04:42;;;;;;;7.05;3.45;;;16.90;99.90;;;;;;5051808;28;20248;-82
2023/07/14 05:07:10;;;;;;;9.00;3.78;;;16.90;99.90;;;;;;5052549;28;20387;-81
2023/07/14 05:09:38;;;;;;;7.78;3.40;;;17.00;99.90;;;;;;5051853;28;20280;-81
2023/07/14 05:12:07;;;;;;;8.70;3.80;;;17.00;99.90;;;;;;5052788;28;20225;-81
2023/07/14 05:14:34;;;;;;;10.68;4.40;;;17.00;99.90;;;;;;5052634;28;20637;-81
2023/07/14 05:17:01;;;;;;;8.95;3.65;;;17.10;99.90;;;;;;5052161;28;20198;-81
2023/07/14 05:19:28;;;;;;;4.75;3.70;;;17.20;99.90;;;;;;5052952;28;20206;-79
2023/07/14 05:21:55;;;;;;;5.55;3.65;;;17.40;99.90;;;;;;5052701;28;20202;-82
2023/07/14 05:24:24;;;;;;;7.05;3.63;;;17.50;99.90;;;;;;5052304;28;20198;-80
2023/07/14 05:26:51;;;;;;;8.23;3.30;;;17.60;99.90;;;;;;5052300;28;20186;-81
2023/07/14 05:29:18;;;;;;;8.70;3.92;;;17.80;99.90;;;;;;5052776;28;20226;-79
2023/07/14 05:31:45;;;;;;;8.88;4.10;;;18.00;99.90;;;;;;5051493;28;20205;-80
2023/07/14 05:34:12;;;;;;;6.60;3.83;;;18.30;99.90;;;;;;5052289;28;20198;-77
2023/07/14 05:36:39;;;;;;;9.13;4.38;;;18.40;99.90;;;;;;5052212;28;20252;-80
2023/07/14 05:39:07;;;;;;;8.88;4.03;;;18.60;99.90;;;;;;5051870;28;20198;-80
2023/07/14 05:41:35;;;;;;;9.35;4.05;;;18.70;99.90;;;;;;5053870;28;20212;-81
2023/07/14 05:44:04;;;;;;;5.65;3.35;;;18.90;99.90;;;;;;5071739;28;20283;-80
2023/07/14 05:46:31;;;;;;;8.15;4.10;;;19.10;99.90;;;;;;5072190;28;20231;-80
2023/07/14 05:48:58;;;;;;;6.53;3.30;;;19.30;99.90;;;;;;5069107;28;20217;-80
2023/07/14 05:51:25;;;;;;;5.85;3.83;;;19.50;99.90;;;;;;5051831;28;20197;-81
2023/07/14 05:53:52;;;;;;;6.40;3.47;;;19.70;99.90;;;;;;5051619;28;20201;-81
2023/07/14 05:56:19;;;;;;;12.00;3.80;;;19.90;99.90;;;;;;5051974;28;20229;-80
2023/07/14 05:58:48;;;;;;;7.70;3.75;;;20.10;99.90;;;;;;5052411;28;20198;-81
2023/07/14 06:01:15;;;;;;;7.70;3.20;;;20.30;99.90;;;;;;5051101;28;20244;-81
2023/07/14 06:03:43;;;;;;;6.20;3.42;;;20.50;99.90;;;;;;5052226;28;20194;-81
2023/07/14 06:06:10;;;;;;;10.68;3.67;;;20.80;99.90;;;;;;5051135;28;20208;-80
2023/07/14 06:08:38;;;;;;;5.43;2.97;;;20.90;99.90;;;;;;5052317;28;20225;-81
2023/07/14 06:11:05;;;;;;;6.72;3.40;;;21.20;99.90;;;;;;5051951;28;20209;-83
2023/07/14 06:13:33;;;;;;;12.00;3.60;;;21.50;99.90;;;;;;5051830;28;20234;-81
2023/07/14 06:16:02;;;;;;;7.25;3.40;;;21.70;1.00;;;;;;5052804;28;20237;-82
2023/07/14 06:18:29;;;;;;;8.10;3.67;;;22.00;1.00;;;;;;5052738;28;20264;-79
2023/07/14 06:20:58;;;;;;;9.68;3.65;;;22.20;1.00;;;;;;5055034;28;20198;-79
2023/07/14 06:23:26;;;;;;;7.20;3.67;;;22.30;1.00;;;;;;5055963;28;20217;-80
2023/07/14 06:26:13;;;;;;;11.90;3.63;;;22.40;1.00;;;;;;5051644;28;20201;-80
2023/07/14 06:28:41;;;;;;;8.65;3.47;;;22.50;99.90;;;;;;5070176;28;20193;-80
2023/07/14 06:31:13;;;;;;;5.95;3.38;;;22.70;99.90;;;;;;5068044;28;20222;-81
2023/07/14 06:33:41;;;;;;;7.18;4.40;;;22.90;99.90;;;;;;5068537;28;20204;-80
2023/07/14 06:36:08;;;;;;;7.07;3.00;;;23.10;1.00;;;;;;5070662;28;20201;-81
2023/07/14 06:38:37;;;;;;;6.82;3.85;;;23.30;1.00;;;;;;5075055;28;20668;-82
2023/07/14 06:41:07;;;;;;;9.82;3.63;;;23.30;99.90;;;;;;5066382;28;20360;-82
2023/07/14 06:43:35;;;;;;;8.85;3.75;;;23.40;1.00;;;;;;5066436;28;20350;-82
2023/07/14 06:46:02;;;;;;;10.40;3.80;;;23.70;1.00;;;;;;5074808;28;20233;-83
2023/07/14 06:48:31;;;;;;;7.05;2.88;;;23.90;99.90;;;;;;5055065;28;20268;-84
2023/07/14 06:50:58;;;;;;;9.65;3.78;;;24.10;1.00;;;;;;5055740;28;20225;-82
2023/07/14 06:53:26;;;;;;;11.40;3.97;;;24.10;99.90;;;;;;5055401;28;20228;-84
2023/07/14 06:55:54;;;;;;;6.78;3.47;;;24.30;1.00;;;;;;5055274;28;20251;-84
2023/07/14 06:58:21;;;;;;;8.80;4.32;;;24.50;1.00;;;;;;5046828;28;20203;-82
2023/07/14 07:00:48;;;;;;;9.82;3.78;;;24.50;1.00;;;;;;5035991;28;20509;-82
2023/07/14 07:03:15;;;;;;;7.30;3.22;;;24.50;99.90;;;;;;5048260;28;20201;-82
2023/07/14 07:05:45;;;;;;;8.32;3.60;;;24.50;1.00;;;;;;5060901;28;20242;-83
2023/07/14 07:08:13;;;;;;;6.82;3.45;;;24.30;1.00;;;;;;5036732;28;20195;-82
2023/07/14 07:10:42;;;;;;;10.77;3.95;;;24.20;1.00;;;;;;5035703;28;20246;-84
2023/07/14 07:13:09;;;;;;;8.35;3.33;;;24.20;99.90;;;;;;5035570;28;20207;-82
2023/07/14 07:15:36;;;;;;;7.55;3.72;;;24.30;99.90;;;;;;5035684;28;20209;-81
2023/07/14 07:18:03;;;;;;;7.65;4.10;;;24.10;99.90;;;;;;5035330;28;20476;-82
2023/07/14 07:20:31;;;;;;;10.15;3.90;;;23.70;1.00;;;;;;5035943;28;20195;-82
2023/07/14 07:22:59;;;;;;;8.13;3.30;;;23.40;40.60;;;;;;5036046;28;20202;-83
2023/07/14 07:25:27;;;;;;;10.93;4.85;;;23.20;99.90;;;;;;5034875;28;20214;-84
2023/07/14 07:27:54;;;;;;;9.88;6.05;;;23.00;99.90;;;;;;5035436;28;20194;-83
2023/07/14 07:30:21;;;;;;;12.60;5.50;;;22.80;99.90;;;;;;5035354;28;20229;-84
2023/07/14 07:32:49;;;;;;;9.38;5.10;;;22.80;99.90;;;;;;5035377;28;20198;-81
2023/07/14 07:35:17;;;;;;;10.63;4.63;;;22.70;99.90;;;;;;5035907;28;20277;-81
2023/07/14 07:37:44;;;;;;;9.57;4.82;;;22.60;99.90;;;;;;5034982;28;20203;-81
2023/07/14 07:40:13;;;;;;;10.50;4.75;;;22.50;99.90;;;;;;5035605;28;20194;-80
2023/07/14 07:42:40;;;;;;;6.53;4.18;;;22.50;99.90;;;;;;5035306;28;20206;-81
2023/07/14 07:45:09;;;;;;;19.63;5.18;;;22.40;99.90;;;;;;5047032;28;20244;-79
2023/07/14 07:47:36;;;;;;;13.60;5.32;;;22.40;99.90;;;;;;5054855;28;20226;-80
2023/07/14 07:50:04;;;;;;;11.82;5.22;;;22.30;99.90;;;;;;5054132;28;20647;-80
2023/07/14 07:52:32;;;;;;;9.20;4.47;;;22.20;99.90;;;;;;5054078;28;20229;-80
2023/07/14 07:54:59;;;;;;;9.65;4.10;;;22.10;99.90;;;;;;5054523;28;20218;-80
2023/07/14 07:57:28;;;;;;;9.88;4.40;;;22.00;99.90;;;;;;5060128;28;20205;-83
2023/07/14 07:59:55;;;;;;;9.55;4.07;;;21.90;99.90;;;;;;5074039;28;20197;-80
2023/07/14 08:02:22;;;;;;;12.15;5.03;;;21.80;99.90;;;;;;5073225;28;20594;-81
2023/07/14 08:04:51;;;;;;;13.40;5.20;;;22.00;99.90;;;;;;5074290;28;20604;-81
2023/07/14 08:07:18;;;;;;;13.32;4.72;;;22.30;99.90;;;;;;5073131;28;20276;-80
2023/07/14 08:09:45;;;;;;;9.38;4.03;;;22.40;99.90;;;;;;5074789;28;20307;-84
2023/07/14 08:12:13;;;;;;;9.05;4.07;;;22.50;99.90;;;;;;5075372;28;20228;-84
2023/07/14 08:14:56;;;;;;;7.07;4.40;;;22.60;99.90;;;;;;5074525;28;20224;-81
2023/07/14 08:17:24;;;;;;;12.85;4.82;;;22.60;99.90;;;;;;5058351;28;20209;-82
2023/07/14 08:19:52;;;;;;;11.05;5.00;;;22.50;99.90;;;;;;5054798;28;20364;-84
2023/07/14 08:22:20;;;;;;;12.18;4.65;;;22.40;99.90;;;;;;5054549;28;20602;-81
2023/07/14 08:24:47;;;;;;;10.25;4.55;;;22.30;99.90;;;;;;5055102;28;20249;-83
2023/07/14 08:27:14;;;;;;;8.63;4.20;;;22.30;99.90;;;;;;5061540;28;20212;-84
2023/07/14 08:29:41;;;;;;;9.05;4.60;;;22.20;99.90;;;;;;5082923;28;20209;-82
2023/07/14 08:32:11;;;;;;;9.80;4.28;;;22.20;99.90;;;;;;5064344;28;20202;-80
2023/07/14 08:34:39;;;;;;;10.80;4.80;;;22.20;99.90;;;;;;5068191;28;20229;-82
2023/07/14 08:37:07;;;;;;;11.25;4.82;;;22.20;99.90;;;;;;5072712;28;20661;-85
2023/07/14 08:39:34;;;;;;;12.05;4.63;;;22.20;99.90;;;;;;5053040;28;20336;-81
2023/07/14 08:42:08;;;;;;;10.57;4.45;;;22.10;99.90;;;;;;5057131;28;20201;-79
2023/07/14 08:44:53;;;;;;;9.38;4.22;;;22.20;99.90;;;;;;5071956;28;20241;-81
2023/07/14 08:47:27;;;;;;;12.20;4.70;;;22.20;99.90;;;;;;5073544;28;20612;-82
2023/07/14 08:50:00;;;;;;;9.63;3.83;;;22.20;99.90;;;;;;5073337;28;20296;-83
2023/07/14 08:52:30;;;;;;;8.18;3.80;;;22.20;99.90;;;;;;5073862;28;20593;-82
2023/07/14 08:55:03;;;;;;;7.90;3.55;;;22.10;99.90;;;;;;5069763;28;20221;-82
2023/07/14 08:57:43;;;;;;;8.40;3.47;;;22.10;99.90;;;;;;5063465;28;20598;-83
2023/07/14 09:00:17;;;;;;;9.32;3.25;;;22.10;99.90;;;;;;5070568;28;20201;-82
2023/07/14 09:02:51;;;;;;;6.78;3.22;;;22.20;99.90;;;;;;5068560;28;20213;-83
2023/07/14 09:05:24;;;;;;;8.30;3.58;;;22.50;99.90;;;;;;5055472;28;20206;-82
2023/07/14 09:07:52;;;;;;;9.23;3.40;;;22.80;99.90;;;;;;5067951;28;20206;-85
2023/07/14 09:10:24;;;;;;;8.20;4.18;;;22.90;99.90;;;;;;5056574;28;20217;-84
2023/07/14 09:13:00;;;;;;;6.40;3.83;;;23.00;99.90;;;;;;5073429;28;20181;-82
2023/07/14 09:15:28;;;;;;;10.15;4.53;;;23.00;99.90;;;;;;5072041;28;20270;-80
2023/07/14 09:18:15;;;;;;;9.38;4.13;;;23.30;99.90;;;;;;5053054;28;20213;-86
2023/07/14 09:20:59;;;;;;;6.15;3.50;;;23.50;99.90;;;;;;5052885;28;20190;-83
2023/07/14 09:23:58;;;;;;;8.90;4.15;;;23.70;99.90;;;;;;5054130;28;20693;-84
2023/07/14 09:26:31;;;;;;;7.22;3.25;;;23.80;99.90;;;;;;5071155;28;20197;-84
2023/07/14 09:28:59;;;;;;;6.45;3.67;;;24.00;99.90;;;;;;5072781;28;20743;-85
2023/07/14 09:31:37;;;;;;;5.70;3.45;;;24.00;99.90;;;;;;5053148;28;20225;-83
2023/07/14 09:34:13;;;;;;;9.95;3.85;;;24.10;99.90;;;;;;5052999;28;20204;-85
2023/07/14 09:36:40;;;;;;;6.68;3.38;;;24.20;99.90;;;;;;5052640;28;20289;-81
2023/07/14 09:39:17;;;;;;;6.45;3.50;;;24.40;99.90;;;;;;5052586;28;20194;-81
2023/07/14 09:41:46;;;;;;;8.25;3.85;;;24.60;99.90;;;;;;5052953;28;20200;-81
2023/07/14 09:44:13;;;;;;;8.50;3.72;;;24.70;99.90;;;;;;5052642;28;20320;-83
2023/07/14 09:46:46;;;;;;;8.88;3.55;;;24.80;99.90;;;;;;5052533;28;20288;-82
2023/07/14 09:49:28;;;;;;;5.78;3.35;;;24.90;99.90;;;;;;5053270;28;20225;-83
2023/07/14 09:52:08;;;;;;;3.97;3.22;;;25.10;99.90;;;;;;5052678;28;20330;-84
2023/07/14 09:54:36;;;;;;;5.47;3.17;;;25.30;99.90;;;;;;5071487;28;20224;-81
2023/07/14 09:57:04;;;;;;;6.40;3.10;;;25.50;99.90;;;;;;5077094;28;20199;-83
2023/07/14 09:59:31;;;;;;;6.53;3.05;;;25.60;99.90;;;;;;5076852;28;20197;-83
2023/07/14 10:02:00;;;;;;;8.40;3.30;;;25.60;99.90;;;;;;5068906;28;20197;-86
2023/07/14 10:04:31;;;;;;;5.13;2.65;;;25.70;99.90;;;;;;5069980;28;20605;-84
2023/07/14 10:07:31;;;;;;;5.45;2.78;;;25.90;99.90;;;;;;5075403;28;20521;-81
2023/07/14 10:10:00;;;;;;;6.38;3.20;;;26.00;99.90;;;;;;5057636;28;20186;-83
2023/07/14 10:12:34;;;;;;;8.88;3.35;;;25.90;99.90;;;;;;5068018;28;20204;-84
2023/07/14 10:15:01;;;;;;;8.70;3.33;;;25.90;99.90;;;;;;5077197;28;20207;-83
2023/07/14 10:17:30;;;;;;;6.80;3.55;;;26.00;99.90;;;;;;5070460;28;20194;-85
2023/07/14 10:20:00;;;;;;;7.07;3.50;;;26.00;99.90;;;;;;5076145;28;20205;-83
2023/07/14 10:22:33;;;;;;;5.28;3.05;;;26.00;99.90;;;;;;5070616;28;20217;-84
2023/07/14 10:25:01;;;;;;;4.80;2.78;;;25.90;99.90;;;;;;5057138;28;20194;-84
2023/07/14 10:27:30;;;;;;;6.03;2.92;;;26.10;99.90;;;;;;5064973;28;20193;-83
2023/07/14 10:30:14;;;;;;;8.43;2.90;;;26.10;99.90;;;;;;5075304;28;20217;-85
2023/07/14 10:32:45;;;;;;;6.45;2.30;;;26.40;99.90;;;;;;5058212;28;20224;-86
2023/07/14 10:35:19;;;;;;;4.88;3.13;;;26.60;99.90;;;;;;5075656;28;20201;-84
2023/07/14 10:37:57;;;;;;;4.45;2.70;;;26.90;99.90;;;;;;5076338;28;20190;-84
2023/07/14 10:40:27;;;;;;;5.78;3.13;;;26.90;99.90;;;;;;5073574;28;20185;-83
2023/07/14 10:42:58;;;;;;;6.03;2.70;;;26.80;99.90;;;;;;5058922;28;20217;-84
2023/07/14 10:45:28;;;;;;;7.40;2.72;;;26.80;99.90;;;;;;5075857;28;20260;-83
2023/07/14 10:47:59;;;;;;;6.10;3.20;;;26.60;99.90;;;;;;5037654;28;20214;-85
2023/07/14 10:50:37;;;;;;;9.15;3.30;;;26.40;99.90;;;;;;5036632;28;20229;-81
2023/07/14 10:53:09;;;;;;;5.20;3.00;;;26.30;99.90;;;;;;5040200;28;20541;-84
2023/07/14 10:55:39;;;;;;;6.72;3.17;;;26.30;99.90;;;;;;5035955;28;20518;-82
2023/07/14 10:58:14;;;;;;;7.38;3.00;;;26.20;99.90;;;;;;5035877;28;20293;-82
2023/07/14 11:00:46;;;;;;;6.80;2.88;;;26.10;99.90;;;;;;5035417;28;20186;-82
2023/07/14 11:03:25;;;;;;;5.40;2.88;;;26.00;99.90;;;;;;5035489;28;20768;-80
2023/07/14 11:06:00;;;;;;;4.78;2.42;;;25.90;99.90;;;;;;5035333;28;20766;-84
2023/07/14 11:08:30;;;;;;;5.47;3.03;;;26.00;99.90;;;;;;5035908;28;20203;-83
2023/07/14 11:11:04;;;;;;;3.90;2.60;;;25.90;99.90;;;;;;5036516;28;20226;-85
2023/07/14 11:13:43;;;;;;;4.38;2.08;;;25.90;99.90;;;;;;5049330;28;20208;-83
2023/07/14 11:16:14;;;;;;;4.75;2.67;;;25.80;99.90;;;;;;5055425;28;20190;-83
2023/07/14 11:18:50;;;;;;;4.53;2.47;;;25.80;99.90;;;;;;5055549;28;20202;-85
2023/07/14 11:21:33;;;;;;;4.28;2.70;;;25.80;99.90;;;;;;5035619;28;20627;-83
2023/07/14 11:24:14;;;;;;;4.45;2.55;;;25.50;99.90;;;;;;5035387;28;20659;-84
2023/07/14 11:27:00;;;;;;;4.47;2.28;;;25.40;99.90;;;;;;5036067;28;20217;-84
2023/07/14 11:29:32;;;;;;;3.35;2.17;;;25.20;99.90;;;;;;5035824;28;20194;-83
2023/07/14 11:32:01;;;;;;;5.57;2.45;;;25.10;99.90;;;;;;5035580;28;20238;-83
2023/07/14 11:34:34;;;;;;;3.00;1.95;;;25.10;99.90;;;;;;5035970;28;20209;-83
2023/07/14 11:37:34;;;;;;;5.78;2.40;;;25.00;99.90;;;;;;5035020;28;20580;-83
2023/07/14 11:40:05;;;;;;;3.35;1.98;;;25.00;99.90;;;;;;5035676;28;20233;-85
2023/07/14 11:42:35;;;;;;;3.13;2.00;;;24.90;99.90;;;;;;5046765;28;20293;-90
2023/07/14 11:45:06;;;;;;;4.18;2.25;;;24.90;99.90;;;;;;5066686;28;20260;-84
2023/07/14 11:47:38;;;;;;;3.08;1.70;;;24.80;99.90;;;;;;5075082;28;20201;-80
2023/07/14 11:50:24;;;;;;;5.10;2.28;;;24.80;99.90;;;;;;5060363;28;20563;-82
2023/07/14 11:53:15;;;;;;;2.72;2.00;;;24.70;99.90;;;;;;5054131;28;20232;-81
2023/07/14 11:55:46;;;;;;;2.10;1.65;;;24.70;1.00;;;;;;5054733;28;20305;-84
2023/07/14 11:58:26;;;;;;;4.00;2.38;;;24.70;1.00;;;;;;5055928;28;20614;-84
2023/07/14 12:00:57;;;;;;;4.55;2.20;;;24.80;1.00;;;;;;5055711;28;20198;-84
2023/07/14 12:03:32;;;;;;;2.72;2.13;;;24.90;1.00;;;;;;5073242;28;20189;-85
2023/07/14 12:06:44;;;;;;;3.33;2.50;;;25.00;1.00;;;;;;5071674;28;20200;-82
2023/07/14 12:09:16;;;;;;;3.83;2.17;;;25.00;1.00;;;;;;4997487;28;20210;-81
2023/07/14 12:11:55;;;;;;;3.90;2.67;;;24.90;1.00;;;;;;5067237;28;20228;-82
2023/07/14 12:14:45;;;;;;;3.83;2.42;;;24.80;1.00;;;;;;5075310;28;20209;-83
2023/07/14 12:17:42;;;;;;;6.47;2.92;;;24.60;1.00;;;;;;5071875;28;20201;-84
2023/07/14 12:20:28;;;;;;;6.95;3.15;;;24.50;1.00;;;;;;5068318;28;20197;-85
2023/07/14 12:23:21;;;;;;;6.80;3.15;;;24.40;1.00;;;;;;5066138;28;20220;-85
2023/07/14 12:26:04;;;;;;;3.60;2.60;;;24.30;99.90;;;;;;5074219;28;20539;-82
2023/07/14 12:28:36;;;;;;;9.88;3.50;;;24.30;99.90;;;;;;5062552;28;20214;-84
2023/07/14 12:31:06;;;;;;;7.68;3.50;;;24.40;99.90;;;;;;5063479;28;20311;-84
2023/07/14 12:33:33;;;;;;;7.88;3.45;;;24.70;99.90;;;;;;5057484;28;20471;-85
2023/07/14 12:36:03;;;;;;;6.55;3.28;;;24.60;99.90;;;;;;5054218;28;20202;-83
2023/07/14 12:38:33;;;;;;;6.78;3.38;;;24.70;99.90;;;;;;5054618;28;20198;-81
2023/07/14 12:41:03;;;;;;;5.50;3.15;;;24.40;99.90;;;;;;5069050;28;20201;-86
2023/07/14 12:43:37;;;;;;;6.15;2.85;;;24.50;99.90;;;;;;5058378;28;20206;-88
2023/07/14 12:46:15;;;;;;;5.07;2.85;;;24.40;99.90;;;;;;5062221;28;20333;-84
2023/07/14 12:48:43;;;;;;;4.80;2.75;;;24.60;99.90;;;;;;5053599;28;21097;-86
2023/07/14 12:51:17;;;;;;;6.43;3.70;;;24.90;99.90;;;;;;5054325;28;20516;-81
2023/07/14 12:53:51;;;;;;;9.82;3.97;;;25.10;99.90;;;;;;5071596;28;20204;-87
2023/07/14 12:56:19;;;;;;;7.45;3.72;;;25.10;99.90;;;;;;5073775;28;20269;-81
2023/07/14 12:58:46;;;;;;;7.97;3.08;;;25.10;99.90;;;;;;5064231;28;20287;-84
2023/07/14 13:01:18;;;;;;;6.28;3.38;;;25.10;99.90;;;;;;5071767;28;20205;-86
2023/07/14 13:03:45;;;;;;;5.05;3.33;;;25.00;99.90;;;;;;5059153;28;20213;-86